sensor_id;sensor_type;location;lat;lon;timestamp;noise_LAeq;noise_LA_min;noise_LA_max;noise_LA01;noise_LA95
66449;Laerm;56828;52.294;4.666;2022-11-03T00:00:09;47.78;40.41;60.95;;
66449;Laerm;56828;52.294;4.666;2022-11-03T00:00:20;49.57;43.84;60.96;;
66449;Laerm;56828;52.294;4.666;2022-11-03T00:00:30;44.60;39.98;57.34;;
66449;Laerm;56828;52.294;4.666;2022-11-03T00:00:40;43.90;40.14;50.75;;
66449;Laerm;56828;52.294;4.666;2022-11-03T00:00:50;43.18;39.20;54.93;;
66449;Laerm;56828;52.294;4.666;2022-11-03T00:01:01;40.37;37.77;48.42;;
66449;Laerm;56828;52.294;4.666;2022-11-03T00:01:11;42.49;38.43;46.50;;
66449;Laerm;56828;52.294;4.666;2022-11-03T00:01:21;43.53;41.48;46.01;;
66449;Laerm;56828;52.294;4.666;2022-11-03T00:01:32;41.27;37.09;47.62;;
66449;Laerm;56828;52.294;4.666;2022-11-03T00:01:43;38.30;35.86;40.37;;
66449;Laerm;56828;52.294;4.666;2022-11-03T00:01:54;42.68;38.37;48.95;;
66449;Laerm;56828;52.294;4.666;2022-11-03T00:02:04;45.70;42.04;51.08;;
66449;Laerm;56828;52.294;4.666;2022-11-03T00:02:14;44.26;41.91;47.61;;
66449;Laerm;56828;52.294;4.666;2022-11-03T00:02:25;47.67;41.04;60.25;;
66449;Laerm;56828;52.294;4.666;2022-11-03T00:02:35;45.27;39.13;56.55;;
66449;Laerm;56828;52.294;4.666;2022-11-03T00:02:45;40.63;37.67;48.35;;
66449;Laerm;56828;52.294;4.666;2022-11-03T00:02:56;39.32;36.90;43.51;;
66449;Laerm;56828;52.294;4.666;2022-11-03T00:03:06;38.21;36.11;45.50;;
66449;Laerm;56828;52.294;4.666;2022-11-03T00:03:16;40.21;37.93;43.23;;
66449;Laerm;56828;52.294;4.666;2022-11-03T00:03:26;38.66;37.08;40.57;;
66449;Laerm;56828;52.294;4.666;2022-11-03T00:03:36;38.80;36.81;40.38;;
66449;Laerm;56828;52.294;4.666;2022-11-03T00:03:47;38.33;36.58;40.07;;
66449;Laerm;56828;52.294;4.666;2022-11-03T00:03:57;37.69;35.90;38.96;;
66449;Laerm;56828;52.294;4.666;2022-11-03T00:04:08;38.79;36.82;43.14;;
66449;Laerm;56828;52.294;4.666;2022-11-03T00:04:20;40.38;37.87;44.54;;
66449;Laerm;56828;52.294;4.666;2022-11-03T00:04:30;43.29;40.31;44.97;;
66449;Laerm;56828;52.294;4.666;2022-11-03T00:04:40;39.84;36.30;43.92;;
66449;Laerm;56828;52.294;4.666;2022-11-03T00:04:51;37.41;35.74;39.16;;
66449;Laerm;56828;52.294;4.666;2022-11-03T00:05:01;37.90;35.85;40.48;;
66449;Laerm;56828;52.294;4.666;2022-11-03T00:05:31;37.21;34.41;42.79;;
66449;Laerm;56828;52.294;4.666;2022-11-03T00:06:00;39.71;36.49;45.82;;
66449;Laerm;56828;52.294;4.666;2022-11-03T00:06:16;38.56;35.85;43.92;;
66449;Laerm;56828;52.294;4.666;2022-11-03T00:06:26;43.52;37.07;55.34;;
66449;Laerm;56828;52.294;4.666;2022-11-03T00:06:37;41.42;37.04;51.09;;
66449;Laerm;56828;52.294;4.666;2022-11-03T00:06:48;41.72;37.36;45.21;;
66449;Laerm;56828;52.294;4.666;2022-11-03T00:06:59;40.73;38.12;42.40;;
66449;Laerm;56828;52.294;4.666;2022-11-03T00:07:09;41.03;38.60;43.51;;
66449;Laerm;56828;52.294;4.666;2022-11-03T00:07:20;38.98;36.73;43.03;;
66449;Laerm;56828;52.294;4.666;2022-11-03T00:07:30;38.04;35.53;40.19;;
66449;Laerm;56828;52.294;4.666;2022-11-03T00:07:40;37.59;35.56;39.44;;
66449;Laerm;56828;52.294;4.666;2022-11-03T00:07:51;40.62;35.46;52.55;;
66449;Laerm;56828;52.294;4.666;2022-11-03T00:08:01;37.72;35.28;40.90;;
66449;Laerm;56828;52.294;4.666;2022-11-03T00:08:12;38.11;36.07;42.79;;
66449;Laerm;56828;52.294;4.666;2022-11-03T00:08:23;39.68;35.91;42.10;;
66449;Laerm;56828;52.294;4.666;2022-11-03T00:08:37;38.43;36.01;46.34;;
66449;Laerm;56828;52.294;4.666;2022-11-03T00:08:47;39.63;36.26;50.96;;
66449;Laerm;56828;52.294;4.666;2022-11-03T00:08:58;40.21;37.74;46.73;;
66449;Laerm;56828;52.294;4.666;2022-11-03T00:09:10;37.41;35.64;39.34;;
66449;Laerm;56828;52.294;4.666;2022-11-03T00:09:21;41.19;37.71;51.48;;
66449;Laerm;56828;52.294;4.666;2022-11-03T00:09:31;42.75;39.26;53.97;;
66449;Laerm;56828;52.294;4.666;2022-11-03T00:09:41;40.57;38.15;44.63;;
66449;Laerm;56828;52.294;4.666;2022-11-03T00:09:52;38.05;36.49;39.72;;
66449;Laerm;56828;52.294;4.666;2022-11-03T00:10:02;39.13;36.42;43.29;;
66449;Laerm;56828;52.294;4.666;2022-11-03T00:10:12;40.91;38.23;50.90;;
66449;Laerm;56828;52.294;4.666;2022-11-03T00:10:23;38.88;36.10;40.62;;
66449;Laerm;56828;52.294;4.666;2022-11-03T00:10:33;40.76;38.16;43.11;;
66449;Laerm;56828;52.294;4.666;2022-11-03T00:10:43;42.16;39.64;45.28;;
66449;Laerm;56828;52.294;4.666;2022-11-03T00:11:00;42.55;39.34;51.99;;
66449;Laerm;56828;52.294;4.666;2022-11-03T00:11:13;40.35;36.14;49.09;;
66449;Laerm;56828;52.294;4.666;2022-11-03T00:11:24;45.65;39.00;61.00;;
66449;Laerm;56828;52.294;4.666;2022-11-03T00:11:35;47.54;38.78;66.32;;
66449;Laerm;56828;52.294;4.666;2022-11-03T00:11:46;40.36;37.20;48.79;;
66449;Laerm;56828;52.294;4.666;2022-11-03T00:11:57;41.00;37.95;44.38;;
66449;Laerm;56828;52.294;4.666;2022-11-03T00:12:07;51.34;38.72;64.83;;
66449;Laerm;56828;52.294;4.666;2022-11-03T00:12:18;42.20;37.21;49.15;;
66449;Laerm;56828;52.294;4.666;2022-11-03T00:12:28;37.59;35.41;40.85;;
66449;Laerm;56828;52.294;4.666;2022-11-03T00:12:38;36.11;34.52;38.71;;
66449;Laerm;56828;52.294;4.666;2022-11-03T00:12:48;35.78;33.93;39.26;;
66449;Laerm;56828;52.294;4.666;2022-11-03T00:12:59;37.36;35.34;42.19;;
66449;Laerm;56828;52.294;4.666;2022-11-03T00:13:09;39.63;37.28;41.84;;
66449;Laerm;56828;52.294;4.666;2022-11-03T00:13:19;41.75;39.40;48.06;;
66449;Laerm;56828;52.294;4.666;2022-11-03T00:13:29;38.72;37.48;40.33;;
66449;Laerm;56828;52.294;4.666;2022-11-03T00:13:41;40.63;37.53;46.53;;
66449;Laerm;56828;52.294;4.666;2022-11-03T00:13:51;40.04;35.29;50.05;;
66449;Laerm;56828;52.294;4.666;2022-11-03T00:14:02;38.86;36.13;47.26;;
66449;Laerm;56828;52.294;4.666;2022-11-03T00:14:13;39.18;36.88;42.04;;
66449;Laerm;56828;52.294;4.666;2022-11-03T00:14:26;44.69;37.12;61.50;;
66449;Laerm;56828;52.294;4.666;2022-11-03T00:14:37;41.22;37.71;51.12;;
66449;Laerm;56828;52.294;4.666;2022-11-03T00:14:47;38.63;36.40;42.06;;
66449;Laerm;56828;52.294;4.666;2022-11-03T00:14:57;42.72;37.28;57.10;;
66449;Laerm;56828;52.294;4.666;2022-11-03T00:15:07;38.25;36.41;43.23;;
66449;Laerm;56828;52.294;4.666;2022-11-03T00:15:18;39.67;36.11;49.64;;
66449;Laerm;56828;52.294;4.666;2022-11-03T00:15:28;49.16;40.51;62.28;;
66449;Laerm;56828;52.294;4.666;2022-11-03T00:15:46;43.69;40.70;50.22;;
66449;Laerm;56828;52.294;4.666;2022-11-03T00:15:56;46.10;38.80;60.90;;
66449;Laerm;56828;52.294;4.666;2022-11-03T00:16:08;43.61;38.35;54.01;;
66449;Laerm;56828;52.294;4.666;2022-11-03T00:16:19;41.57;37.39;52.20;;
66449;Laerm;56828;52.294;4.666;2022-11-03T00:16:29;39.91;38.11;43.66;;
66449;Laerm;56828;52.294;4.666;2022-11-03T00:16:40;38.71;36.52;41.51;;
66449;Laerm;56828;52.294;4.666;2022-11-03T00:16:51;38.25;36.60;42.93;;
66449;Laerm;56828;52.294;4.666;2022-11-03T00:17:01;39.17;37.28;44.55;;
66449;Laerm;56828;52.294;4.666;2022-11-03T00:17:11;40.05;37.76;46.32;;
66449;Laerm;56828;52.294;4.666;2022-11-03T00:17:22;39.07;37.32;40.96;;
66449;Laerm;56828;52.294;4.666;2022-11-03T00:17:32;38.83;36.45;41.01;;
66449;Laerm;56828;52.294;4.666;2022-11-03T00:17:44;40.05;37.62;43.42;;
66449;Laerm;56828;52.294;4.666;2022-11-03T00:17:57;39.54;36.91;44.80;;
66449;Laerm;56828;52.294;4.666;2022-11-03T00:18:07;41.52;39.22;48.87;;
66449;Laerm;56828;52.294;4.666;2022-11-03T00:18:17;42.53;39.27;54.09;;
66449;Laerm;56828;52.294;4.666;2022-11-03T00:18:28;39.45;37.39;43.17;;
66449;Laerm;56828;52.294;4.666;2022-11-03T00:18:38;38.53;36.10;40.38;;
66449;Laerm;56828;52.294;4.666;2022-11-03T00:18:49;37.32;35.77;39.00;;
66449;Laerm;56828;52.294;4.666;2022-11-03T00:19:00;37.84;36.02;41.25;;
66449;Laerm;56828;52.294;4.666;2022-11-03T00:19:10;40.22;36.05;53.41;;
66449;Laerm;56828;52.294;4.666;2022-11-03T00:19:22;37.79;36.37;40.47;;
66449;Laerm;56828;52.294;4.666;2022-11-03T00:19:33;38.74;36.77;40.28;;
66449;Laerm;56828;52.294;4.666;2022-11-03T00:19:43;38.87;37.19;41.00;;
66449;Laerm;56828;52.294;4.666;2022-11-03T00:19:53;39.01;36.44;41.88;;
66449;Laerm;56828;52.294;4.666;2022-11-03T00:20:03;38.90;36.28;48.77;;
66449;Laerm;56828;52.294;4.666;2022-11-03T00:20:14;49.66;39.48;64.48;;
66449;Laerm;56828;52.294;4.666;2022-11-03T00:20:24;46.04;38.43;58.26;;
66449;Laerm;56828;52.294;4.666;2022-11-03T00:20:34;39.68;36.99;47.51;;
66449;Laerm;56828;52.294;4.666;2022-11-03T00:20:44;38.70;36.16;42.35;;
66449;Laerm;56828;52.294;4.666;2022-11-03T00:21:04;39.29;37.34;44.60;;
66449;Laerm;56828;52.294;4.666;2022-11-03T00:21:15;40.67;37.28;51.17;;
66449;Laerm;56828;52.294;4.666;2022-11-03T00:21:25;38.44;36.94;44.22;;
66449;Laerm;56828;52.294;4.666;2022-11-03T00:21:36;40.63;36.95;49.92;;
66449;Laerm;56828;52.294;4.666;2022-11-03T00:21:46;53.80;40.81;68.32;;
66449;Laerm;56828;52.294;4.666;2022-11-03T00:21:57;39.78;37.83;42.00;;
66449;Laerm;56828;52.294;4.666;2022-11-03T00:22:08;39.36;37.45;41.36;;
66449;Laerm;56828;52.294;4.666;2022-11-03T00:22:18;42.10;39.17;52.48;;
66449;Laerm;56828;52.294;4.666;2022-11-03T00:22:28;40.84;38.75;43.74;;
66449;Laerm;56828;52.294;4.666;2022-11-03T00:22:42;40.17;36.80;50.39;;
66449;Laerm;56828;52.294;4.666;2022-11-03T00:22:52;40.47;37.47;51.65;;
66449;Laerm;56828;52.294;4.666;2022-11-03T00:23:02;38.26;36.62;42.48;;
66449;Laerm;56828;52.294;4.666;2022-11-03T00:23:12;40.41;37.38;47.12;;
66449;Laerm;56828;52.294;4.666;2022-11-03T00:23:26;40.30;37.28;43.16;;
66449;Laerm;56828;52.294;4.666;2022-11-03T00:23:38;39.16;37.21;47.32;;
66449;Laerm;56828;52.294;4.666;2022-11-03T00:23:51;41.53;37.13;51.59;;
66449;Laerm;56828;52.294;4.666;2022-11-03T00:24:01;45.49;38.73;58.41;;
66449;Laerm;56828;52.294;4.666;2022-11-03T00:24:14;44.93;41.56;57.93;;
66449;Laerm;56828;52.294;4.666;2022-11-03T00:24:24;44.86;40.04;61.09;;
66449;Laerm;56828;52.294;4.666;2022-11-03T00:24:34;43.11;37.50;55.15;;
66449;Laerm;56828;52.294;4.666;2022-11-03T00:24:51;38.70;37.15;40.36;;
66449;Laerm;56828;52.294;4.666;2022-11-03T00:25:02;39.26;36.54;47.80;;
66449;Laerm;56828;52.294;4.666;2022-11-03T00:25:12;41.97;39.43;50.25;;
66449;Laerm;56828;52.294;4.666;2022-11-03T00:25:28;40.67;38.16;44.43;;
66449;Laerm;56828;52.294;4.666;2022-11-03T00:25:39;39.10;37.44;40.56;;
66449;Laerm;56828;52.294;4.666;2022-11-03T00:25:49;37.72;35.91;39.51;;
66449;Laerm;56828;52.294;4.666;2022-11-03T00:26:06;40.62;36.69;43.14;;
66449;Laerm;56828;52.294;4.666;2022-11-03T00:26:18;41.98;36.84;46.59;;
66449;Laerm;56828;52.294;4.666;2022-11-03T00:26:31;40.69;37.63;45.24;;
66449;Laerm;56828;52.294;4.666;2022-11-03T00:26:42;40.17;36.20;55.12;;
66449;Laerm;56828;52.294;4.666;2022-11-03T00:26:52;39.10;37.22;41.18;;
66449;Laerm;56828;52.294;4.666;2022-11-03T00:27:02;40.67;38.15;47.51;;
66449;Laerm;56828;52.294;4.666;2022-11-03T00:27:13;40.98;38.57;52.46;;
66449;Laerm;56828;52.294;4.666;2022-11-03T00:27:23;43.53;37.98;56.29;;
66449;Laerm;56828;52.294;4.666;2022-11-03T00:27:33;48.65;40.09;58.81;;
66449;Laerm;56828;52.294;4.666;2022-11-03T00:27:43;44.96;41.93;55.83;;
66449;Laerm;56828;52.294;4.666;2022-11-03T00:27:54;44.86;39.60;55.46;;
66449;Laerm;56828;52.294;4.666;2022-11-03T00:28:05;39.75;37.96;43.30;;
66449;Laerm;56828;52.294;4.666;2022-11-03T00:28:15;40.04;37.64;42.15;;
66449;Laerm;56828;52.294;4.666;2022-11-03T00:28:25;40.21;37.07;47.54;;
66449;Laerm;56828;52.294;4.666;2022-11-03T00:28:35;40.43;37.47;50.69;;
66449;Laerm;56828;52.294;4.666;2022-11-03T00:28:50;41.85;39.58;44.09;;
66449;Laerm;56828;52.294;4.666;2022-11-03T00:29:07;41.66;38.62;45.93;;
66449;Laerm;56828;52.294;4.666;2022-11-03T00:29:18;41.21;37.70;51.37;;
66449;Laerm;56828;52.294;4.666;2022-11-03T00:29:28;40.83;38.16;44.10;;
66449;Laerm;56828;52.294;4.666;2022-11-03T00:29:38;46.24;38.48;65.59;;
66449;Laerm;56828;52.294;4.666;2022-11-03T00:29:48;40.23;38.26;43.46;;
66449;Laerm;56828;52.294;4.666;2022-11-03T00:29:58;39.83;37.47;50.04;;
66449;Laerm;56828;52.294;4.666;2022-11-03T00:30:09;43.18;37.73;51.27;;
66449;Laerm;56828;52.294;4.666;2022-11-03T00:30:19;42.26;37.20;58.77;;
66449;Laerm;56828;52.294;4.666;2022-11-03T00:30:29;37.95;35.63;42.46;;
66449;Laerm;56828;52.294;4.666;2022-11-03T00:30:40;37.99;36.51;40.16;;
66449;Laerm;56828;52.294;4.666;2022-11-03T00:30:50;42.95;36.14;56.85;;
66449;Laerm;56828;52.294;4.666;2022-11-03T00:31:00;43.29;36.89;52.42;;
66449;Laerm;56828;52.294;4.666;2022-11-03T00:31:15;40.10;37.59;46.74;;
66449;Laerm;56828;52.294;4.666;2022-11-03T00:31:26;40.99;38.28;43.72;;
66449;Laerm;56828;52.294;4.666;2022-11-03T00:31:38;39.94;37.82;43.32;;
66449;Laerm;56828;52.294;4.666;2022-11-03T00:31:48;41.56;38.41;43.96;;
66449;Laerm;56828;52.294;4.666;2022-11-03T00:31:58;40.09;36.97;42.75;;
66449;Laerm;56828;52.294;4.666;2022-11-03T00:32:09;37.60;35.55;39.30;;
66449;Laerm;56828;52.294;4.666;2022-11-03T00:32:19;36.85;35.09;42.59;;
66449;Laerm;56828;52.294;4.666;2022-11-03T00:32:29;37.72;34.99;45.21;;
66449;Laerm;56828;52.294;4.666;2022-11-03T00:32:39;40.49;37.91;49.03;;
66449;Laerm;56828;52.294;4.666;2022-11-03T00:32:50;40.89;37.07;51.43;;
66449;Laerm;56828;52.294;4.666;2022-11-03T00:33:00;38.67;36.21;43.34;;
66449;Laerm;56828;52.294;4.666;2022-11-03T00:33:10;38.38;36.31;40.29;;
66449;Laerm;56828;52.294;4.666;2022-11-03T00:33:20;37.37;35.61;40.27;;
66449;Laerm;56828;52.294;4.666;2022-11-03T00:33:36;42.12;36.08;56.24;;
66449;Laerm;56828;52.294;4.666;2022-11-03T00:33:46;41.01;38.51;47.15;;
66449;Laerm;56828;52.294;4.666;2022-11-03T00:33:57;43.01;39.60;44.87;;
66449;Laerm;56828;52.294;4.666;2022-11-03T00:34:08;38.15;36.26;40.52;;
66449;Laerm;56828;52.294;4.666;2022-11-03T00:34:18;37.83;35.64;40.77;;
66449;Laerm;56828;52.294;4.666;2022-11-03T00:34:29;41.73;37.54;50.48;;
66449;Laerm;56828;52.294;4.666;2022-11-03T00:34:39;42.69;40.08;45.67;;
66449;Laerm;56828;52.294;4.666;2022-11-03T00:34:49;39.01;37.39;41.40;;
66449;Laerm;56828;52.294;4.666;2022-11-03T00:34:59;39.94;37.52;49.56;;
66449;Laerm;56828;52.294;4.666;2022-11-03T00:35:10;40.86;38.33;46.14;;
66449;Laerm;56828;52.294;4.666;2022-11-03T00:35:20;40.50;36.26;43.96;;
66449;Laerm;56828;52.294;4.666;2022-11-03T00:35:30;40.07;35.12;51.70;;
66449;Laerm;56828;52.294;4.666;2022-11-03T00:35:41;44.07;38.59;58.99;;
66449;Laerm;56828;52.294;4.666;2022-11-03T00:35:57;40.21;37.35;43.48;;
66449;Laerm;56828;52.294;4.666;2022-11-03T00:36:12;36.16;34.08;38.55;;
66449;Laerm;56828;52.294;4.666;2022-11-03T00:36:23;38.14;33.93;42.54;;
66449;Laerm;56828;52.294;4.666;2022-11-03T00:36:44;40.53;37.97;43.04;;
66449;Laerm;56828;52.294;4.666;2022-11-03T00:36:54;36.96;34.95;39.05;;
66449;Laerm;56828;52.294;4.666;2022-11-03T00:37:05;37.15;35.22;41.04;;
66449;Laerm;56828;52.294;4.666;2022-11-03T00:37:15;40.35;36.63;49.96;;
66449;Laerm;56828;52.294;4.666;2022-11-03T00:37:25;40.18;37.86;43.83;;
66449;Laerm;56828;52.294;4.666;2022-11-03T00:37:35;43.00;39.09;52.55;;
66449;Laerm;56828;52.294;4.666;2022-11-03T00:37:48;42.07;38.77;47.49;;
66449;Laerm;56828;52.294;4.666;2022-11-03T00:37:58;40.60;37.07;45.44;;
66449;Laerm;56828;52.294;4.666;2022-11-03T00:38:08;37.85;36.09;40.50;;
66449;Laerm;56828;52.294;4.666;2022-11-03T00:38:19;37.84;35.36;43.91;;
66449;Laerm;56828;52.294;4.666;2022-11-03T00:38:29;49.53;36.03;63.15;;
66449;Laerm;56828;52.294;4.666;2022-11-03T00:38:40;47.15;37.54;66.78;;
66449;Laerm;56828;52.294;4.666;2022-11-03T00:38:50;47.21;39.84;60.09;;
66449;Laerm;56828;52.294;4.666;2022-11-03T00:39:00;45.09;41.28;55.11;;
66449;Laerm;56828;52.294;4.666;2022-11-03T00:39:11;49.01;39.94;64.28;;
66449;Laerm;56828;52.294;4.666;2022-11-03T00:39:22;40.31;35.39;51.40;;
66449;Laerm;56828;52.294;4.666;2022-11-03T00:39:33;37.82;34.66;43.61;;
66449;Laerm;56828;52.294;4.666;2022-11-03T00:39:43;36.68;34.56;43.44;;
66449;Laerm;56828;52.294;4.666;2022-11-03T00:39:53;37.68;35.36;43.57;;
66449;Laerm;56828;52.294;4.666;2022-11-03T00:40:03;37.37;34.82;43.83;;
66449;Laerm;56828;52.294;4.666;2022-11-03T00:40:14;40.01;38.28;41.81;;
66449;Laerm;56828;52.294;4.666;2022-11-03T00:40:24;39.10;37.23;41.46;;
66449;Laerm;56828;52.294;4.666;2022-11-03T00:40:34;38.29;35.84;41.60;;
66449;Laerm;56828;52.294;4.666;2022-11-03T00:40:44;36.44;35.06;38.95;;
66449;Laerm;56828;52.294;4.666;2022-11-03T00:40:55;36.37;34.85;44.00;;
66449;Laerm;56828;52.294;4.666;2022-11-03T00:41:06;38.90;35.85;41.38;;
66449;Laerm;56828;52.294;4.666;2022-11-03T00:41:17;38.24;35.84;41.31;;
66449;Laerm;56828;52.294;4.666;2022-11-03T00:41:27;37.98;35.42;41.78;;
66449;Laerm;56828;52.294;4.666;2022-11-03T00:41:38;38.67;34.96;44.47;;
66449;Laerm;56828;52.294;4.666;2022-11-03T00:41:48;37.12;34.71;41.53;;
66449;Laerm;56828;52.294;4.666;2022-11-03T00:41:58;41.17;36.21;57.46;;
66449;Laerm;56828;52.294;4.666;2022-11-03T00:42:09;44.71;37.62;62.68;;
66449;Laerm;56828;52.294;4.666;2022-11-03T00:42:19;41.04;39.28;44.26;;
66449;Laerm;56828;52.294;4.666;2022-11-03T00:42:29;39.22;37.05;44.28;;
66449;Laerm;56828;52.294;4.666;2022-11-03T00:42:39;43.20;38.25;53.63;;
66449;Laerm;56828;52.294;4.666;2022-11-03T00:42:50;42.30;39.33;46.45;;
66449;Laerm;56828;52.294;4.666;2022-11-03T00:43:00;40.05;36.66;49.21;;
66449;Laerm;56828;52.294;4.666;2022-11-03T00:43:10;39.98;36.15;49.20;;
66449;Laerm;56828;52.294;4.666;2022-11-03T00:43:21;40.76;38.63;42.88;;
66449;Laerm;56828;52.294;4.666;2022-11-03T00:43:33;40.10;36.75;48.11;;
66449;Laerm;56828;52.294;4.666;2022-11-03T00:43:43;41.37;39.12;47.04;;
66449;Laerm;56828;52.294;4.666;2022-11-03T00:43:54;40.52;37.59;44.92;;
66449;Laerm;56828;52.294;4.666;2022-11-03T00:44:04;41.34;36.21;55.31;;
66449;Laerm;56828;52.294;4.666;2022-11-03T00:44:14;42.29;36.98;53.51;;
66449;Laerm;56828;52.294;4.666;2022-11-03T00:44:24;37.65;35.60;41.41;;
66449;Laerm;56828;52.294;4.666;2022-11-03T00:44:36;37.25;35.48;39.75;;
66449;Laerm;56828;52.294;4.666;2022-11-03T00:44:46;41.36;35.92;51.32;;
66449;Laerm;56828;52.294;4.666;2022-11-03T00:44:56;43.70;36.48;53.72;;
66449;Laerm;56828;52.294;4.666;2022-11-03T00:45:07;40.60;36.19;55.57;;
66449;Laerm;56828;52.294;4.666;2022-11-03T00:45:20;39.37;35.69;48.92;;
66449;Laerm;56828;52.294;4.666;2022-11-03T00:45:30;44.40;38.63;60.06;;
66449;Laerm;56828;52.294;4.666;2022-11-03T00:45:41;43.04;37.12;58.97;;
66449;Laerm;56828;52.294;4.666;2022-11-03T00:45:51;39.37;37.56;44.22;;
66449;Laerm;56828;52.294;4.666;2022-11-03T00:46:02;38.04;36.14;41.13;;
66449;Laerm;56828;52.294;4.666;2022-11-03T00:46:14;36.84;34.68;45.03;;
66449;Laerm;56828;52.294;4.666;2022-11-03T00:46:24;36.02;33.52;38.59;;
66449;Laerm;56828;52.294;4.666;2022-11-03T00:46:35;37.57;35.78;39.49;;
66449;Laerm;56828;52.294;4.666;2022-11-03T00:46:45;38.46;36.18;42.13;;
66449;Laerm;56828;52.294;4.666;2022-11-03T00:46:55;36.39;33.79;38.57;;
66449;Laerm;56828;52.294;4.666;2022-11-03T00:47:06;37.03;35.07;38.50;;
66449;Laerm;56828;52.294;4.666;2022-11-03T00:47:18;53.45;36.29;67.76;;
66449;Laerm;56828;52.294;4.666;2022-11-03T00:47:28;49.65;37.78;61.86;;
66449;Laerm;56828;52.294;4.666;2022-11-03T00:47:39;45.59;38.05;55.84;;
66449;Laerm;56828;52.294;4.666;2022-11-03T00:48:09;42.83;34.78;52.60;;
66449;Laerm;56828;52.294;4.666;2022-11-03T00:48:38;36.80;34.65;38.72;;
66449;Laerm;56828;52.294;4.666;2022-11-03T00:48:48;36.65;34.95;38.67;;
66449;Laerm;56828;52.294;4.666;2022-11-03T00:48:59;37.41;34.73;40.57;;
66449;Laerm;56828;52.294;4.666;2022-11-03T00:49:09;36.93;35.57;38.79;;
66449;Laerm;56828;52.294;4.666;2022-11-03T00:49:19;36.42;34.84;38.01;;
66449;Laerm;56828;52.294;4.666;2022-11-03T00:49:29;38.97;35.16;43.43;;
66449;Laerm;56828;52.294;4.666;2022-11-03T00:49:40;35.97;33.45;39.18;;
66449;Laerm;56828;52.294;4.666;2022-11-03T00:49:50;35.81;33.46;42.09;;
66449;Laerm;56828;52.294;4.666;2022-11-03T00:50:00;36.33;33.92;41.64;;
66449;Laerm;56828;52.294;4.666;2022-11-03T00:50:10;36.92;34.66;39.88;;
66449;Laerm;56828;52.294;4.666;2022-11-03T00:50:21;35.69;33.95;37.58;;
66449;Laerm;56828;52.294;4.666;2022-11-03T00:50:32;37.75;35.05;39.59;;
66449;Laerm;56828;52.294;4.666;2022-11-03T00:50:42;37.68;36.08;40.51;;
66449;Laerm;56828;52.294;4.666;2022-11-03T00:50:52;38.77;36.60;40.70;;
66449;Laerm;56828;52.294;4.666;2022-11-03T00:51:25;39.83;38.29;41.31;;
66449;Laerm;56828;52.294;4.666;2022-11-03T00:51:33;41.73;38.42;51.64;;
66449;Laerm;56828;52.294;4.666;2022-11-03T00:51:44;41.42;36.19;53.96;;
66449;Laerm;56828;52.294;4.666;2022-11-03T00:51:55;38.74;37.36;40.88;;
66449;Laerm;56828;52.294;4.666;2022-11-03T00:52:05;40.23;37.76;46.65;;
66449;Laerm;56828;52.294;4.666;2022-11-03T00:52:15;38.87;35.98;48.27;;
66449;Laerm;56828;52.294;4.666;2022-11-03T00:52:25;37.55;34.87;46.00;;
66449;Laerm;56828;52.294;4.666;2022-11-03T00:52:36;37.58;35.80;40.49;;
66449;Laerm;56828;52.294;4.666;2022-11-03T00:52:46;41.34;36.76;44.04;;
66449;Laerm;56828;52.294;4.666;2022-11-03T00:52:56;41.01;37.80;52.73;;
66449;Laerm;56828;52.294;4.666;2022-11-03T00:53:06;39.36;37.66;43.60;;
66449;Laerm;56828;52.294;4.666;2022-11-03T00:53:16;45.71;37.39;60.34;;
66449;Laerm;56828;52.294;4.666;2022-11-03T00:53:27;38.92;37.66;41.02;;
66449;Laerm;56828;52.294;4.666;2022-11-03T00:53:52;38.75;36.26;48.87;;
66449;Laerm;56828;52.294;4.666;2022-11-03T00:54:03;36.24;34.30;40.58;;
66449;Laerm;56828;52.294;4.666;2022-11-03T00:54:13;36.03;34.26;37.81;;
66449;Laerm;56828;52.294;4.666;2022-11-03T00:54:26;38.84;37.07;40.44;;
66449;Laerm;56828;52.294;4.666;2022-11-03T00:54:37;36.99;34.10;39.72;;
66449;Laerm;56828;52.294;4.666;2022-11-03T00:54:47;35.57;33.63;37.78;;
66449;Laerm;56828;52.294;4.666;2022-11-03T00:54:57;36.86;34.19;46.45;;
66449;Laerm;56828;52.294;4.666;2022-11-03T00:55:07;36.46;34.28;44.85;;
66449;Laerm;56828;52.294;4.666;2022-11-03T00:55:18;35.59;33.60;39.32;;
66449;Laerm;56828;52.294;4.666;2022-11-03T00:55:28;36.14;34.03;39.47;;
66449;Laerm;56828;52.294;4.666;2022-11-03T00:55:39;35.63;33.57;38.74;;
66449;Laerm;56828;52.294;4.666;2022-11-03T00:55:49;38.42;34.88;43.63;;
66449;Laerm;56828;52.294;4.666;2022-11-03T00:55:59;37.77;33.81;51.13;;
66449;Laerm;56828;52.294;4.666;2022-11-03T00:56:13;36.64;35.09;38.65;;
66449;Laerm;56828;52.294;4.666;2022-11-03T00:56:25;36.27;33.91;40.46;;
66449;Laerm;56828;52.294;4.666;2022-11-03T00:56:38;35.83;33.93;39.28;;
66449;Laerm;56828;52.294;4.666;2022-11-03T00:56:48;41.07;37.16;50.07;;
66449;Laerm;56828;52.294;4.666;2022-11-03T00:57:01;40.79;38.27;47.95;;
66449;Laerm;56828;52.294;4.666;2022-11-03T00:57:11;40.03;36.35;53.67;;
66449;Laerm;56828;52.294;4.666;2022-11-03T00:57:22;37.85;34.99;45.98;;
66449;Laerm;56828;52.294;4.666;2022-11-03T00:57:32;37.64;35.38;44.77;;
66449;Laerm;56828;52.294;4.666;2022-11-03T00:57:42;37.68;35.68;42.17;;
66449;Laerm;56828;52.294;4.666;2022-11-03T00:57:52;36.41;33.80;38.88;;
66449;Laerm;56828;52.294;4.666;2022-11-03T00:58:03;35.84;33.25;45.72;;
66449;Laerm;56828;52.294;4.666;2022-11-03T00:58:13;38.99;34.76;48.63;;
66449;Laerm;56828;52.294;4.666;2022-11-03T00:58:23;39.32;34.98;42.54;;
66449;Laerm;56828;52.294;4.666;2022-11-03T00:58:33;39.15;37.18;44.73;;
66449;Laerm;56828;52.294;4.666;2022-11-03T00:58:44;38.49;35.49;40.65;;
66449;Laerm;56828;52.294;4.666;2022-11-03T00:58:55;36.41;34.60;38.73;;
66449;Laerm;56828;52.294;4.666;2022-11-03T00:59:06;38.89;34.56;47.72;;
66449;Laerm;56828;52.294;4.666;2022-11-03T00:59:17;37.64;35.23;43.72;;
66449;Laerm;56828;52.294;4.666;2022-11-03T00:59:27;36.77;34.63;39.09;;
66449;Laerm;56828;52.294;4.666;2022-11-03T00:59:38;36.73;34.96;40.79;;
66449;Laerm;56828;52.294;4.666;2022-11-03T00:59:48;37.17;35.72;42.19;;
66449;Laerm;56828;52.294;4.666;2022-11-03T00:59:58;39.19;36.42;41.42;;
66449;Laerm;56828;52.294;4.666;2022-11-03T01:00:08;39.91;36.36;43.86;;
66449;Laerm;56828;52.294;4.666;2022-11-03T01:00:19;39.89;37.35;47.56;;
66449;Laerm;56828;52.294;4.666;2022-11-03T01:00:29;41.90;36.44;51.00;;
66449;Laerm;56828;52.294;4.666;2022-11-03T01:00:39;38.73;36.91;40.09;;
66449;Laerm;56828;52.294;4.666;2022-11-03T01:00:49;43.37;37.73;49.71;;
66449;Laerm;56828;52.294;4.666;2022-11-03T01:01:04;42.14;37.78;47.94;;
66449;Laerm;56828;52.294;4.666;2022-11-03T01:01:21;42.25;37.31;53.26;;
66449;Laerm;56828;52.294;4.666;2022-11-03T01:01:33;39.46;36.73;46.64;;
66449;Laerm;56828;52.294;4.666;2022-11-03T01:01:44;42.37;38.50;54.49;;
66449;Laerm;56828;52.294;4.666;2022-11-03T01:01:54;39.07;37.04;42.97;;
66449;Laerm;56828;52.294;4.666;2022-11-03T01:02:04;40.68;37.81;50.91;;
66449;Laerm;56828;52.294;4.666;2022-11-03T01:02:14;43.05;36.77;54.21;;
66449;Laerm;56828;52.294;4.666;2022-11-03T01:02:25;40.83;38.68;44.54;;
66449;Laerm;56828;52.294;4.666;2022-11-03T01:02:35;39.42;35.86;49.26;;
66449;Laerm;56828;52.294;4.666;2022-11-03T01:02:45;38.00;35.84;42.43;;